sensor_id;sensor_type;location;lat;lon;timestamp;temperature;humidity
21787;DHT22;11055;50.870;4.316;2022-07-04T00:00:35;20.30;99.90
21787;DHT22;11055;50.870;4.316;2022-07-04T00:03:00;20.30;99.90
21787;DHT22;11055;50.870;4.316;2022-07-04T00:05:26;20.30;99.90
21787;DHT22;11055;50.870;4.316;2022-07-04T00:07:51;20.30;99.90
21787;DHT22;11055;50.870;4.316;2022-07-04T00:10:18;20.30;99.90
21787;DHT22;11055;50.870;4.316;2022-07-04T00:12:43;20.20;99.90
21787;DHT22;11055;50.870;4.316;2022-07-04T00:15:09;19.80;99.90
21787;DHT22;11055;50.870;4.316;2022-07-04T00:17:35;19.70;99.90
21787;DHT22;11055;50.870;4.316;2022-07-04T00:20:01;19.70;99.90
21787;DHT22;11055;50.870;4.316;2022-07-04T00:22:26;19.70;99.90
21787;DHT22;11055;50.870;4.316;2022-07-04T00:24:52;19.70;99.90
21787;DHT22;11055;50.870;4.316;2022-07-04T00:27:17;19.50;99.90
21787;DHT22;11055;50.870;4.316;2022-07-04T00:29:43;19.10;99.90
21787;DHT22;11055;50.870;4.316;2022-07-04T00:32:08;19.00;99.90
21787;DHT22;11055;50.870;4.316;2022-07-04T00:34:34;18.80;99.90
21787;DHT22;11055;50.870;4.316;2022-07-04T00:37:00;18.60;99.90
21787;DHT22;11055;50.870;4.316;2022-07-04T00:39:25;18.50;99.90
21787;DHT22;11055;50.870;4.316;2022-07-04T00:41:51;18.50;99.90
21787;DHT22;11055;50.870;4.316;2022-07-04T00:44:16;18.40;99.90
21787;DHT22;11055;50.870;4.316;2022-07-04T00:46:43;18.30;99.90
21787;DHT22;11055;50.870;4.316;2022-07-04T00:49:09;18.40;99.90
21787;DHT22;11055;50.870;4.316;2022-07-04T00:51:36;18.50;99.90
21787;DHT22;11055;50.870;4.316;2022-07-04T00:54:02;18.70;99.90
21787;DHT22;11055;50.870;4.316;2022-07-04T00:56:28;18.60;99.90
21787;DHT22;11055;50.870;4.316;2022-07-04T00:58:54;18.40;99.90
21787;DHT22;11055;50.870;4.316;2022-07-04T01:01:20;18.50;99.90
21787;DHT22;11055;50.870;4.316;2022-07-04T01:03:46;18.60;99.90
21787;DHT22;11055;50.870;4.316;2022-07-04T01:06:11;18.80;99.90
21787;DHT22;11055;50.870;4.316;2022-07-04T01:08:40;18.90;99.90
21787;DHT22;11055;50.870;4.316;2022-07-04T01:11:06;19.00;99.90
21787;DHT22;11055;50.870;4.316;2022-07-04T01:13:31;19.10;99.90
21787;DHT22;11055;50.870;4.316;2022-07-04T01:15:57;19.20;99.90
21787;DHT22;11055;50.870;4.316;2022-07-04T01:18:23;19.20;99.90
21787;DHT22;11055;50.870;4.316;2022-07-04T01:20:48;19.20;99.90
21787;DHT22;11055;50.870;4.316;2022-07-04T01:23:14;19.30;99.90
21787;DHT22;11055;50.870;4.316;2022-07-04T01:25:41;19.30;99.90
21787;DHT22;11055;50.870;4.316;2022-07-04T01:28:06;19.30;99.90
21787;DHT22;11055;50.870;4.316;2022-07-04T01:30:32;19.30;99.90
21787;DHT22;11055;50.870;4.316;2022-07-04T01:32:57;19.30;99.90
21787;DHT22;11055;50.870;4.316;2022-07-04T01:35:23;19.00;99.90
21787;DHT22;11055;50.870;4.316;2022-07-04T01:37:49;18.90;99.90
21787;DHT22;11055;50.870;4.316;2022-07-04T01:40:15;18.80;99.90
21787;DHT22;11055;50.870;4.316;2022-07-04T01:42:41;18.70;99.90
21787;DHT22;11055;50.870;4.316;2022-07-04T01:45:07;18.40;99.90
21787;DHT22;11055;50.870;4.316;2022-07-04T01:47:33;18.30;99.90
21787;DHT22;11055;50.870;4.316;2022-07-04T01:49:59;18.50;99.90
21787;DHT22;11055;50.870;4.316;2022-07-04T01:52:24;18.60;99.90
21787;DHT22;11055;50.870;4.316;2022-07-04T01:54:50;18.50;99.90
21787;DHT22;11055;50.870;4.316;2022-07-04T01:57:15;18.50;99.90
21787;DHT22;11055;50.870;4.316;2022-07-04T01:59:41;18.30;99.90
21787;DHT22;11055;50.870;4.316;2022-07-04T02:02:25;18.10;99.90
21787;DHT22;11055;50.870;4.316;2022-07-04T02:04:50;17.90;99.90
21787;DHT22;11055;50.870;4.316;2022-07-04T02:07:16;17.90;99.90
21787;DHT22;11055;50.870;4.316;2022-07-04T02:09:42;18.00;99.90
21787;DHT22;11055;50.870;4.316;2022-07-04T02:12:07;18.00;99.90
21787;DHT22;11055;50.870;4.316;2022-07-04T02:14:51;18.10;99.90
21787;DHT22;11055;50.870;4.316;2022-07-04T02:17:17;17.90;99.90
21787;DHT22;11055;50.870;4.316;2022-07-04T02:19:43;17.90;99.90
21787;DHT22;11055;50.870;4.316;2022-07-04T02:22:08;17.70;99.90
21787;DHT22;11055;50.870;4.316;2022-07-04T02:24:34;17.60;99.90
21787;DHT22;11055;50.870;4.316;2022-07-04T02:26:59;17.50;99.90
21787;DHT22;11055;50.870;4.316;2022-07-04T02:29:25;17.40;99.90
21787;DHT22;11055;50.870;4.316;2022-07-04T02:31:50;17.30;99.90
21787;DHT22;11055;50.870;4.316;2022-07-04T02:34:16;17.30;99.90
21787;DHT22;11055;50.870;4.316;2022-07-04T02:36:41;17.10;99.90
21787;DHT22;11055;50.870;4.316;2022-07-04T02:39:07;17.00;99.90
21787;DHT22;11055;50.870;4.316;2022-07-04T02:41:32;16.90;99.90
21787;DHT22;11055;50.870;4.316;2022-07-04T02:43:58;16.80;99.90
21787;DHT22;11055;50.870;4.316;2022-07-04T02:46:24;16.80;99.90
21787;DHT22;11055;50.870;4.316;2022-07-04T02:48:50;16.60;99.90
21787;DHT22;11055;50.870;4.316;2022-07-04T02:51:15;16.40;99.90
21787;DHT22;11055;50.870;4.316;2022-07-04T02:53:41;16.40;99.90
21787;DHT22;11055;50.870;4.316;2022-07-04T02:56:06;16.50;99.90
21787;DHT22;11055;50.870;4.316;2022-07-04T02:58:32;16.50;99.90
21787;DHT22;11055;50.870;4.316;2022-07-04T03:00:58;16.50;99.90
21787;DHT22;11055;50.870;4.316;2022-07-04T03:03:24;16.50;99.90
21787;DHT22;11055;50.870;4.316;2022-07-04T03:05:49;16.40;99.90
21787;DHT22;11055;50.870;4.316;2022-07-04T03:08:15;16.30;99.90
21787;DHT22;11055;50.870;4.316;2022-07-04T03:10:40;16.20;99.90
21787;DHT22;11055;50.870;4.316;2022-07-04T03:13:06;16.20;99.90
21787;DHT22;11055;50.870;4.316;2022-07-04T03:15:31;16.10;99.90
21787;DHT22;11055;50.870;4.316;2022-07-04T03:17:57;16.10;99.90
21787;DHT22;11055;50.870;4.316;2022-07-04T03:20:22;16.10;99.90
21787;DHT22;11055;50.870;4.316;2022-07-04T03:22:48;16.20;99.90
21787;DHT22;11055;50.870;4.316;2022-07-04T03:25:14;16.30;99.90
21787;DHT22;11055;50.870;4.316;2022-07-04T03:27:39;16.30;99.90
21787;DHT22;11055;50.870;4.316;2022-07-04T03:30:05;16.30;99.90
21787;DHT22;11055;50.870;4.316;2022-07-04T03:32:31;16.20;99.90
21787;DHT22;11055;50.870;4.316;2022-07-04T03:34:56;16.30;99.90
21787;DHT22;11055;50.870;4.316;2022-07-04T03:37:22;16.30;99.90
21787;DHT22;11055;50.870;4.316;2022-07-04T03:39:47;16.40;99.90
21787;DHT22;11055;50.870;4.316;2022-07-04T03:42:13;16.40;99.90
21787;DHT22;11055;50.870;4.316;2022-07-04T03:44:38;16.50;99.90
21787;DHT22;11055;50.870;4.316;2022-07-04T03:47:04;16.50;99.90
21787;DHT22;11055;50.870;4.316;2022-07-04T03:49:29;16.50;99.90
21787;DHT22;11055;50.870;4.316;2022-07-04T03:51:55;16.70;99.90
21787;DHT22;11055;50.870;4.316;2022-07-04T03:54:20;16.80;99.90
21787;DHT22;11055;50.870;4.316;2022-07-04T03:56:46;16.90;99.90
21787;DHT22;11055;50.870;4.316;2022-07-04T03:59:11;16.80;99.90
21787;DHT22;11055;50.870;4.316;2022-07-04T04:01:37;16.80;99.90
21787;DHT22;11055;50.870;4.316;2022-07-04T04:04:02;16.70;99.90
21787;DHT22;11055;50.870;4.316;2022-07-04T04:06:46;16.50;99.90
21787;DHT22;11055;50.870;4.316;2022-07-04T04:09:12;16.50;99.90
21787;DHT22;11055;50.870;4.316;2022-07-04T04:11:42;16.40;99.90
21787;DHT22;11055;50.870;4.316;2022-07-04T04:14:08;16.40;99.90
21787;DHT22;11055;50.870;4.316;2022-07-04T04:16:33;16.40;99.90
21787;DHT22;11055;50.870;4.316;2022-07-04T04:18:59;16.40;99.90
21787;DHT22;11055;50.870;4.316;2022-07-04T04:21:24;16.40;99.90
21787;DHT22;11055;50.870;4.316;2022-07-04T04:23:50;16.30;99.90
21787;DHT22;11055;50.870;4.316;2022-07-04T04:26:16;16.20;99.90
21787;DHT22;11055;50.870;4.316;2022-07-04T04:28:41;16.10;99.90
21787;DHT22;11055;50.870;4.316;2022-07-04T04:31:08;16.00;99.90
21787;DHT22;11055;50.870;4.316;2022-07-04T04:33:34;16.00;99.90
21787;DHT22;11055;50.870;4.316;2022-07-04T04:35:59;16.00;99.90
21787;DHT22;11055;50.870;4.316;2022-07-04T04:38:25;16.00;99.90
21787;DHT22;11055;50.870;4.316;2022-07-04T04:40:51;16.10;99.90
21787;DHT22;11055;50.870;4.316;2022-07-04T04:43:16;16.10;99.90
21787;DHT22;11055;50.870;4.316;2022-07-04T04:45:42;16.10;99.90
21787;DHT22;11055;50.870;4.316;2022-07-04T04:48:07;16.10;99.90
21787;DHT22;11055;50.870;4.316;2022-07-04T04:50:33;16.10;99.90
21787;DHT22;11055;50.870;4.316;2022-07-04T04:52:58;16.20;99.90
21787;DHT22;11055;50.870;4.316;2022-07-04T04:55:24;16.20;99.90
21787;DHT22;11055;50.870;4.316;2022-07-04T04:57:49;16.20;99.90
21787;DHT22;11055;50.870;4.316;2022-07-04T05:00:15;16.10;99.90
21787;DHT22;11055;50.870;4.316;2022-07-04T05:02:40;16.00;99.90
21787;DHT22;11055;50.870;4.316;2022-07-04T05:05:06;16.00;99.90
21787;DHT22;11055;50.870;4.316;2022-07-04T05:07:32;15.90;99.90
21787;DHT22;11055;50.870;4.316;2022-07-04T05:09:59;15.80;99.90
21787;DHT22;11055;50.870;4.316;2022-07-04T05:12:25;15.80;99.90
21787;DHT22;11055;50.870;4.316;2022-07-04T05:14:51;15.70;99.90
21787;DHT22;11055;50.870;4.316;2022-07-04T05:17:17;15.60;99.90
21787;DHT22;11055;50.870;4.316;2022-07-04T05:19:42;15.50;99.90
21787;DHT22;11055;50.870;4.316;2022-07-04T05:22:08;15.50;99.90
21787;DHT22;11055;50.870;4.316;2022-07-04T05:24:36;15.60;99.90
21787;DHT22;11055;50.870;4.316;2022-07-04T05:27:05;15.70;99.90
21787;DHT22;11055;50.870;4.316;2022-07-04T05:29:30;15.70;99.90
21787;DHT22;11055;50.870;4.316;2022-07-04T05:31:56;15.70;99.90
21787;DHT22;11055;50.870;4.316;2022-07-04T05:34:21;15.70;99.90
21787;DHT22;11055;50.870;4.316;2022-07-04T05:36:47;15.70;99.90
21787;DHT22;11055;50.870;4.316;2022-07-04T05:39:12;15.70;99.90
21787;DHT22;11055;50.870;4.316;2022-07-04T05:41:38;15.90;99.90
21787;DHT22;11055;50.870;4.316;2022-07-04T05:44:03;16.10;99.90
21787;DHT22;11055;50.870;4.316;2022-07-04T05:46:29;16.10;99.90
21787;DHT22;11055;50.870;4.316;2022-07-04T05:48:55;16.10;99.90
21787;DHT22;11055;50.870;4.316;2022-07-04T05:51:20;16.10;99.90
21787;DHT22;11055;50.870;4.316;2022-07-04T05:53:46;16.20;99.90
21787;DHT22;11055;50.870;4.316;2022-07-04T05:56:11;16.20;99.90
21787;DHT22;11055;50.870;4.316;2022-07-04T05:58:37;16.20;99.90
21787;DHT22;11055;50.870;4.316;2022-07-04T06:01:02;16.20;99.90
21787;DHT22;11055;50.870;4.316;2022-07-04T06:03:28;16.20;99.90
21787;DHT22;11055;50.870;4.316;2022-07-04T06:05:53;16.30;99.90
21787;DHT22;11055;50.870;4.316;2022-07-04T06:08:19;16.40;99.90
21787;DHT22;11055;50.870;4.316;2022-07-04T06:10:45;16.40;99.90
21787;DHT22;11055;50.870;4.316;2022-07-04T06:13:11;16.50;99.90
21787;DHT22;11055;50.870;4.316;2022-07-04T06:15:37;16.60;99.90
21787;DHT22;11055;50.870;4.316;2022-07-04T06:18:02;16.60;99.90
21787;DHT22;11055;50.870;4.316;2022-07-04T06:20:28;16.50;99.90
21787;DHT22;11055;50.870;4.316;2022-07-04T06:22:54;16.40;99.90
21787;DHT22;11055;50.870;4.316;2022-07-04T06:25:20;16.40;99.90
21787;DHT22;11055;50.870;4.316;2022-07-04T06:27:46;16.50;99.90
21787;DHT22;11055;50.870;4.316;2022-07-04T06:30:12;16.50;99.90
21787;DHT22;11055;50.870;4.316;2022-07-04T06:32:44;16.70;99.90
21787;DHT22;11055;50.870;4.316;2022-07-04T06:35:10;16.90;99.90
21787;DHT22;11055;50.870;4.316;2022-07-04T06:37:54;17.10;99.90
21787;DHT22;11055;50.870;4.316;2022-07-04T06:40:20;17.30;99.90
21787;DHT22;11055;50.870;4.316;2022-07-04T06:42:46;17.40;99.90
21787;DHT22;11055;50.870;4.316;2022-07-04T06:45:11;17.60;99.90
21787;DHT22;11055;50.870;4.316;2022-07-04T06:47:37;17.80;99.90
21787;DHT22;11055;50.870;4.316;2022-07-04T06:50:02;18.00;99.90
21787;DHT22;11055;50.870;4.316;2022-07-04T06:52:28;18.20;99.90
21787;DHT22;11055;50.870;4.316;2022-07-04T06:54:53;18.40;99.90
21787;DHT22;11055;50.870;4.316;2022-07-04T06:57:19;18.60;99.90
21787;DHT22;11055;50.870;4.316;2022-07-04T06:59:44;18.80;99.90
21787;DHT22;11055;50.870;4.316;2022-07-04T07:02:10;18.90;99.90
21787;DHT22;11055;50.870;4.316;2022-07-04T07:04:35;18.90;99.90
21787;DHT22;11055;50.870;4.316;2022-07-04T07:07:03;19.00;99.90
21787;DHT22;11055;50.870;4.316;2022-07-04T07:09:28;19.20;99.90
21787;DHT22;11055;50.870;4.316;2022-07-04T07:11:54;19.20;99.90
21787;DHT22;11055;50.870;4.316;2022-07-04T07:14:19;19.10;99.90
21787;DHT22;11055;50.870;4.316;2022-07-04T07:16:45;19.10;99.90
21787;DHT22;11055;50.870;4.316;2022-07-04T07:19:10;19.10;99.90
21787;DHT22;11055;50.870;4.316;2022-07-04T07:21:36;19.30;99.90
21787;DHT22;11055;50.870;4.316;2022-07-04T07:24:01;19.50;99.90
21787;DHT22;11055;50.870;4.316;2022-07-04T07:26:29;19.70;99.90
21787;DHT22;11055;50.870;4.316;2022-07-04T07:28:55;19.90;99.90
21787;DHT22;11055;50.870;4.316;2022-07-04T07:31:20;20.00;99.90
21787;DHT22;11055;50.870;4.316;2022-07-04T07:33:46;20.10;99.90
21787;DHT22;11055;50.870;4.316;2022-07-04T07:36:11;20.30;99.90
21787;DHT22;11055;50.870;4.316;2022-07-04T07:38:37;20.40;99.90
21787;DHT22;11055;50.870;4.316;2022-07-04T07:41:02;20.30;99.90
21787;DHT22;11055;50.870;4.316;2022-07-04T07:43:28;20.20;99.90
21787;DHT22;11055;50.870;4.316;2022-07-04T07:45:54;20.10;99.90
21787;DHT22;11055;50.870;4.316;2022-07-04T07:48:20;20.10;99.90
21787;DHT22;11055;50.870;4.316;2022-07-04T07:50:45;20.00;99.90
21787;DHT22;11055;50.870;4.316;2022-07-04T07:53:11;20.00;99.90
21787;DHT22;11055;50.870;4.316;2022-07-04T07:55:37;19.90;99.90
21787;DHT22;11055;50.870;4.316;2022-07-04T07:58:02;19.90;99.90
21787;DHT22;11055;50.870;4.316;2022-07-04T08:00:28;20.00;99.90
21787;DHT22;11055;50.870;4.316;2022-07-04T08:02:53;20.00;99.90
21787;DHT22;11055;50.870;4.316;2022-07-04T08:05:48;20.20;99.90
21787;DHT22;11055;50.870;4.316;2022-07-04T08:08:14;20.50;99.90
21787;DHT22;11055;50.870;4.316;2022-07-04T08:10:39;20.80;99.90
21787;DHT22;11055;50.870;4.316;2022-07-04T08:13:05;21.00;99.90
21787;DHT22;11055;50.870;4.316;2022-07-04T08:15:30;21.30;99.90
21787;DHT22;11055;50.870;4.316;2022-07-04T08:17:56;21.40;99.90
21787;DHT22;11055;50.870;4.316;2022-07-04T08:20:22;21.60;99.90
21787;DHT22;11055;50.870;4.316;2022-07-04T08:22:47;21.60;99.90
21787;DHT22;11055;50.870;4.316;2022-07-04T08:25:13;21.60;99.90
21787;DHT22;11055;50.870;4.316;2022-07-04T08:27:40;21.70;99.90
21787;DHT22;11055;50.870;4.316;2022-07-04T08:30:06;21.50;99.90
21787;DHT22;11055;50.870;4.316;2022-07-04T08:32:31;21.30;99.90
21787;DHT22;11055;50.870;4.316;2022-07-04T08:34:57;21.30;99.90
21787;DHT22;11055;50.870;4.316;2022-07-04T08:37:23;21.30;99.90
21787;DHT22;11055;50.870;4.316;2022-07-04T08:39:49;21.30;99.90
21787;DHT22;11055;50.870;4.316;2022-07-04T08:42:18;21.10;99.90
21787;DHT22;11055;50.870;4.316;2022-07-04T08:44:48;21.20;99.90
21787;DHT22;11055;50.870;4.316;2022-07-04T08:47:16;21.30;99.90
21787;DHT22;11055;50.870;4.316;2022-07-04T08:49:44;21.40;99.90
21787;DHT22;11055;50.870;4.316;2022-07-04T08:52:11;21.50;99.90
21787;DHT22;11055;50.870;4.316;2022-07-04T08:54:37;21.60;99.90
21787;DHT22;11055;50.870;4.316;2022-07-04T08:57:22;21.70;99.90
21787;DHT22;11055;50.870;4.316;2022-07-04T09:00:07;21.80;99.90
21787;DHT22;11055;50.870;4.316;2022-07-04T09:02:33;21.90;99.90
21787;DHT22;11055;50.870;4.316;2022-07-04T09:04:59;22.00;99.90
21787;DHT22;11055;50.870;4.316;2022-07-04T09:07:26;22.00;99.90
21787;DHT22;11055;50.870;4.316;2022-07-04T09:09:51;22.10;99.90
21787;DHT22;11055;50.870;4.316;2022-07-04T09:12:17;22.10;99.90
21787;DHT22;11055;50.870;4.316;2022-07-04T09:14:43;22.10;99.90
21787;DHT22;11055;50.870;4.316;2022-07-04T09:17:08;22.20;99.90
21787;DHT22;11055;50.870;4.316;2022-07-04T09:19:34;22.40;99.90
21787;DHT22;11055;50.870;4.316;2022-07-04T09:22:03;22.60;99.90
21787;DHT22;11055;50.870;4.316;2022-07-04T09:24:50;22.90;99.90
21787;DHT22;11055;50.870;4.316;2022-07-04T09:27:28;23.10;99.90
21787;DHT22;11055;50.870;4.316;2022-07-04T09:29:53;23.20;99.90
21787;DHT22;11055;50.870;4.316;2022-07-04T09:35:04;23.20;99.90
21787;DHT22;11055;50.870;4.316;2022-07-04T09:37:33;23.20;99.90
21787;DHT22;11055;50.870;4.316;2022-07-04T09:39:59;23.00;99.90
21787;DHT22;11055;50.870;4.316;2022-07-04T09:42:24;23.00;99.90
21787;DHT22;11055;50.870;4.316;2022-07-04T09:44:50;23.00;99.90
21787;DHT22;11055;50.870;4.316;2022-07-04T09:47:26;23.10;99.90
21787;DHT22;11055;50.870;4.316;2022-07-04T09:50:12;23.30;99.90
21787;DHT22;11055;50.870;4.316;2022-07-04T09:55:15;23.20;99.90
21787;DHT22;11055;50.870;4.316;2022-07-04T09:57:44;23.10;99.90
21787;DHT22;11055;50.870;4.316;2022-07-04T10:02:42;23.10;99.90
21787;DHT22;11055;50.870;4.316;2022-07-04T10:05:08;23.00;99.90
21787;DHT22;11055;50.870;4.316;2022-07-04T10:07:35;23.00;99.90
21787;DHT22;11055;50.870;4.316;2022-07-04T10:12:55;23.30;99.90
21787;DHT22;11055;50.870;4.316;2022-07-04T10:15:21;23.50;99.90
21787;DHT22;11055;50.870;4.316;2022-07-04T10:17:46;23.50;99.90
21787;DHT22;11055;50.870;4.316;2022-07-04T10:20:12;23.30;99.90
21787;DHT22;11055;50.870;4.316;2022-07-04T10:22:38;23.10;99.90
21787;DHT22;11055;50.870;4.316;2022-07-04T10:25:04;23.00;99.90
21787;DHT22;11055;50.870;4.316;2022-07-04T10:27:30;22.80;99.90
21787;DHT22;11055;50.870;4.316;2022-07-04T10:29:56;22.90;99.90
21787;DHT22;11055;50.870;4.316;2022-07-04T10:32:22;22.90;99.90
21787;DHT22;11055;50.870;4.316;2022-07-04T10:34:47;23.10;99.90
21787;DHT22;11055;50.870;4.316;2022-07-04T10:37:13;23.20;99.90
21787;DHT22;11055;50.870;4.316;2022-07-04T10:39:38;23.20;99.90
21787;DHT22;11055;50.870;4.316;2022-07-04T10:42:05;23.20;99.90
21787;DHT22;11055;50.870;4.316;2022-07-04T10:44:31;23.30;99.90
21787;DHT22;11055;50.870;4.316;2022-07-04T10:47:03;23.30;99.90
21787;DHT22;11055;50.870;4.316;2022-07-04T10:49:28;23.20;99.90
21787;DHT22;11055;50.870;4.316;2022-07-04T10:54:33;23.60;99.90
21787;DHT22;11055;50.870;4.316;2022-07-04T10:57:15;23.80;99.90
21787;DHT22;11055;50.870;4.316;2022-07-04T10:59:41;24.00;99.90
21787;DHT22;11055;50.870;4.316;2022-07-04T11:07:17;24.30;99.90
21787;DHT22;11055;50.870;4.316;2022-07-04T11:09:43;24.30;99.90
21787;DHT22;11055;50.870;4.316;2022-07-04T11:12:09;23.70;99.90
21787;DHT22;11055;50.870;4.316;2022-07-04T11:17:01;23.70;99.90
21787;DHT22;11055;50.870;4.316;2022-07-04T11:19:27;23.90;99.90
21787;DHT22;11055;50.870;4.316;2022-07-04T11:21:54;24.30;99.60
21787;DHT22;11055;50.870;4.316;2022-07-04T11:24:19;24.40;99.70
21787;DHT22;11055;50.870;4.316;2022-07-04T11:26:45;24.50;98.60
21787;DHT22;11055;50.870;4.316;2022-07-04T11:29:14;24.50;98.90
21787;DHT22;11055;50.870;4.316;2022-07-04T11:31:40;24.70;99.20
21787;DHT22;11055;50.870;4.316;2022-07-04T11:34:06;24.80;99.70
21787;DHT22;11055;50.870;4.316;2022-07-04T11:36:32;25.00;99.30
21787;DHT22;11055;50.870;4.316;2022-07-04T11:38:59;25.10;98.20
21787;DHT22;11055;50.870;4.316;2022-07-04T11:41:28;25.00;98.40
21787;DHT22;11055;50.870;4.316;2022-07-04T11:44:14;25.20;97.60
21787;DHT22;11055;50.870;4.316;2022-07-04T11:47:09;25.60;99.00
21787;DHT22;11055;50.870;4.316;2022-07-04T11:49:36;26.00;97.40
21787;DHT22;11055;50.870;4.316;2022-07-04T11:52:01;25.70;97.00
21787;DHT22;11055;50.870;4.316;2022-07-04T11:54:27;25.90;97.00
21787;DHT22;11055;50.870;4.316;2022-07-04T11:57:07;26.00;97.40
21787;DHT22;11055;50.870;4.316;2022-07-04T11:59:33;26.20;96.80
21787;DHT22;11055;50.870;4.316;2022-07-04T12:01:58;26.40;96.60
21787;DHT22;11055;50.870;4.316;2022-07-04T12:04:34;26.40;96.00
21787;DHT22;11055;50.870;4.316;2022-07-04T12:07:02;26.40;96.00
21787;DHT22;11055;50.870;4.316;2022-07-04T12:09:33;26.20;95.00
21787;DHT22;11055;50.870;4.316;2022-07-04T12:11:59;26.30;95.30
21787;DHT22;11055;50.870;4.316;2022-07-04T12:14:27;26.40;95.50
21787;DHT22;11055;50.870;4.316;2022-07-04T12:19:37;26.70;94.60
21787;DHT22;11055;50.870;4.316;2022-07-04T12:22:03;26.90;93.10
21787;DHT22;11055;50.870;4.316;2022-07-04T12:24:38;26.90;93.50
21787;DHT22;11055;50.870;4.316;2022-07-04T12:27:03;27.00;92.00
21787;DHT22;11055;50.870;4.316;2022-07-04T12:29:29;26.70;90.10
21787;DHT22;11055;50.870;4.316;2022-07-04T12:31:55;26.60;89.60
21787;DHT22;11055;50.870;4.316;2022-07-04T12:34:20;26.70;91.30
21787;DHT22;11055;50.870;4.316;2022-07-04T12:39:30;26.40;91.00
21787;DHT22;11055;50.870;4.316;2022-07-04T12:44:37;26.00;91.00
21787;DHT22;11055;50.870;4.316;2022-07-04T12:47:03;26.10;91.10
21787;DHT22;11055;50.870;4.316;2022-07-04T12:49:29;26.20;91.30
21787;DHT22;11055;50.870;4.316;2022-07-04T12:52:04;26.30;91.00
21787;DHT22;11055;50.870;4.316;2022-07-04T12:54:30;26.10;89.00
21787;DHT22;11055;50.870;4.316;2022-07-04T12:57:07;25.90;89.80
21787;DHT22;11055;50.870;4.316;2022-07-04T12:59:33;25.80;90.20
21787;DHT22;11055;50.870;4.316;2022-07-04T13:01:59;25.60;90.90
21787;DHT22;11055;50.870;4.316;2022-07-04T13:04:24;25.60;91.00
21787;DHT22;11055;50.870;4.316;2022-07-04T13:06:50;25.70;91.50
21787;DHT22;11055;50.870;4.316;2022-07-04T13:09:16;25.90;91.80
21787;DHT22;11055;50.870;4.316;2022-07-04T13:11:41;25.90;91.20
21787;DHT22;11055;50.870;4.316;2022-07-04T13:14:25;25.70;91.40
21787;DHT22;11055;50.870;4.316;2022-07-04T13:16:51;25.30;91.80
21787;DHT22;11055;50.870;4.316;2022-07-04T13:19:17;25.20;92.20
21787;DHT22;11055;50.870;4.316;2022-07-04T13:21:42;25.00;92.30
21787;DHT22;11055;50.870;4.316;2022-07-04T13:24:08;24.80;91.20
21787;DHT22;11055;50.870;4.316;2022-07-04T13:26:34;24.70;91.60
21787;DHT22;11055;50.870;4.316;2022-07-04T13:29:00;24.60;91.90
21787;DHT22;11055;50.870;4.316;2022-07-04T13:31:28;24.70;92.80
21787;DHT22;11055;50.870;4.316;2022-07-04T13:33:54;24.70;92.50
21787;DHT22;11055;50.870;4.316;2022-07-04T13:36:19;24.80;93.30
21787;DHT22;11055;50.870;4.316;2022-07-04T13:38:45;24.90;93.00
21787;DHT22;11055;50.870;4.316;2022-07-04T13:41:10;24.90;92.90
21787;DHT22;11055;50.870;4.316;2022-07-04T13:43:35;24.90;92.80
21787;DHT22;11055;50.870;4.316;2022-07-04T13:46:01;24.90;92.60
21787;DHT22;11055;50.870;4.316;2022-07-04T13:48:28;24.90;92.50
21787;DHT22;11055;50.870;4.316;2022-07-04T13:50:53;24.60;92.10
21787;DHT22;11055;50.870;4.316;2022-07-04T13:53:19;24.40;92.80
21787;DHT22;11055;50.870;4.316;2022-07-04T13:55:45;24.20;93.10
21787;DHT22;11055;50.870;4.316;2022-07-04T13:58:11;24.20;93.20
21787;DHT22;11055;50.870;4.316;2022-07-04T14:00:36;24.10;93.60
21787;DHT22;11055;50.870;4.316;2022-07-04T14:03:05;24.20;93.70
21787;DHT22;11055;50.870;4.316;2022-07-04T14:05:31;24.20;94.30
21787;DHT22;11055;50.870;4.316;2022-07-04T14:07:56;24.40;94.10
21787;DHT22;11055;50.870;4.316;2022-07-04T14:10:22;24.40;93.80
21787;DHT22;11055;50.870;4.316;2022-07-04T14:12:47;24.40;94.20
21787;DHT22;11055;50.870;4.316;2022-07-04T14:15:13;24.60;94.30
21787;DHT22;11055;50.870;4.316;2022-07-04T14:17:38;24.80;94.00
21787;DHT22;11055;50.870;4.316;2022-07-04T14:20:05;24.80;93.90
21787;DHT22;11055;50.870;4.316;2022-07-04T14:22:31;24.80;94.10
21787;DHT22;11055;50.870;4.316;2022-07-04T14:24:56;25.00;94.10
21787;DHT22;11055;50.870;4.316;2022-07-04T14:27:22;25.10;94.10
21787;DHT22;11055;50.870;4.316;2022-07-04T14:29:47;25.30;94.30
21787;DHT22;11055;50.870;4.316;2022-07-04T14:32:13;25.30;93.50
21787;DHT22;11055;50.870;4.316;2022-07-04T14:34:38;25.30;93.80
21787;DHT22;11055;50.870;4.316;2022-07-04T14:37:04;25.30;93.60
21787;DHT22;11055;50.870;4.316;2022-07-04T14:39:29;25.20;94.20
21787;DHT22;11055;50.870;4.316;2022-07-04T14:41:55;25.20;93.80
21787;DHT22;11055;50.870;4.316;2022-07-04T14:44:20;25.10;93.20
21787;DHT22;11055;50.870;4.316;2022-07-04T14:46:46;25.00;93.80
21787;DHT22;11055;50.870;4.316;2022-07-04T14:49:11;25.10;93.80
21787;DHT22;11055;50.870;4.316;2022-07-04T14:51:37;25.20;93.50
21787;DHT22;11055;50.870;4.316;2022-07-04T14:54:06;25.30;93.40
21787;DHT22;11055;50.870;4.316;2022-07-04T14:56:32;25.20;93.10
21787;DHT22;11055;50.870;4.316;2022-07-04T14:58:58;25.30;93.60
21787;DHT22;11055;50.870;4.316;2022-07-04T15:01:23;25.50;92.90
21787;DHT22;11055;50.870;4.316;2022-07-04T15:03:49;25.40;92.60
21787;DHT22;11055;50.870;4.316;2022-07-04T15:06:14;25.30;93.00
21787;DHT22;11055;50.870;4.316;2022-07-04T15:08:40;25.10;92.60
21787;DHT22;11055;50.870;4.316;2022-07-04T15:11:05;25.00;92.80
21787;DHT22;11055;50.870;4.316;2022-07-04T15:13:31;24.90;92.80
21787;DHT22;11055;50.870;4.316;2022-07-04T15:15:56;25.00;93.10
21787;DHT22;11055;50.870;4.316;2022-07-04T15:18:22;25.00;93.10
21787;DHT22;11055;50.870;4.316;2022-07-04T15:20:47;25.20;93.30
21787;DHT22;11055;50.870;4.316;2022-07-04T15:23:32;25.30;93.00
21787;DHT22;11055;50.870;4.316;2022-07-04T15:26:16;25.50;93.10
21787;DHT22;11055;50.870;4.316;2022-07-04T15:28:41;25.50;92.90
21787;DHT22;11055;50.870;4.316;2022-07-04T15:31:07;25.40;92.60
21787;DHT22;11055;50.870;4.316;2022-07-04T15:33:33;25.40;93.00
21787;DHT22;11055;50.870;4.316;2022-07-04T15:35:59;25.50;93.50
21787;DHT22;11055;50.870;4.316;2022-07-04T15:38:24;25.50;93.20
21787;DHT22;11055;50.870;4.316;2022-07-04T15:40:50;25.00;93.30
21787;DHT22;11055;50.870;4.316;2022-07-04T15:43:15;25.00;93.40
21787;DHT22;11055;50.870;4.316;2022-07-04T15:45:41;25.10;93.30
21787;DHT22;11055;50.870;4.316;2022-07-04T15:48:07;25.10;93.80
21787;DHT22;11055;50.870;4.316;2022-07-04T15:50:33;25.10;93.50
21787;DHT22;11055;50.870;4.316;2022-07-04T15:52:58;25.00;94.20
21787;DHT22;11055;50.870;4.316;2022-07-04T15:55:24;25.00;93.90